sensor_id;sensor_type;location;lat;lon;timestamp;P1;durP1;ratioP1;P2;durP2;ratioP2
58360;SDS011;44164;44.954;10.068;2023-12-20T00:01:15;5.13;;;4.20;;
58360;SDS011;44164;44.954;10.068;2023-12-20T00:03:41;6.32;;;4.38;;
58360;SDS011;44164;44.954;10.068;2023-12-20T00:06:07;7.22;;;4.45;;
58360;SDS011;44164;44.954;10.068;2023-12-20T00:08:33;6.78;;;4.38;;
58360;SDS011;44164;44.954;10.068;2023-12-20T00:11:00;5.75;;;4.15;;
58360;SDS011;44164;44.954;10.068;2023-12-20T00:13:26;7.05;;;3.72;;
58360;SDS011;44164;44.954;10.068;2023-12-20T00:15:52;6.53;;;4.30;;
58360;SDS011;44164;44.954;10.068;2023-12-20T00:18:18;5.88;;;4.28;;
58360;SDS011;44164;44.954;10.068;2023-12-20T00:20:45;6.18;;;4.07;;
58360;SDS011;44164;44.954;10.068;2023-12-20T00:23:11;6.00;;;4.53;;
58360;SDS011;44164;44.954;10.068;2023-12-20T00:25:37;5.55;;;3.60;;
58360;SDS011;44164;44.954;10.068;2023-12-20T00:28:03;6.15;;;4.20;;
58360;SDS011;44164;44.954;10.068;2023-12-20T00:30:30;6.45;;;3.92;;
58360;SDS011;44164;44.954;10.068;2023-12-20T00:32:56;5.25;;;4.13;;
58360;SDS011;44164;44.954;10.068;2023-12-20T00:35:22;9.02;;;4.32;;
58360;SDS011;44164;44.954;10.068;2023-12-20T00:37:48;8.18;;;4.53;;
58360;SDS011;44164;44.954;10.068;2023-12-20T00:40:15;5.57;;;4.25;;
58360;SDS011;44164;44.954;10.068;2023-12-20T00:42:41;6.55;;;4.60;;
58360;SDS011;44164;44.954;10.068;2023-12-20T00:45:07;5.97;;;3.85;;
58360;SDS011;44164;44.954;10.068;2023-12-20T00:47:34;5.03;;;3.75;;
58360;SDS011;44164;44.954;10.068;2023-12-20T00:50:00;5.70;;;3.80;;
58360;SDS011;44164;44.954;10.068;2023-12-20T00:52:26;4.85;;;3.58;;
58360;SDS011;44164;44.954;10.068;2023-12-20T00:54:52;5.65;;;4.00;;
58360;SDS011;44164;44.954;10.068;2023-12-20T00:57:18;6.35;;;4.38;;
58360;SDS011;44164;44.954;10.068;2023-12-20T00:59:44;5.50;;;4.18;;
58360;SDS011;44164;44.954;10.068;2023-12-20T01:02:11;5.85;;;4.40;;
58360;SDS011;44164;44.954;10.068;2023-12-20T01:04:37;6.43;;;4.55;;
58360;SDS011;44164;44.954;10.068;2023-12-20T01:07:03;5.07;;;3.90;;
58360;SDS011;44164;44.954;10.068;2023-12-20T01:09:30;5.45;;;3.80;;
58360;SDS011;44164;44.954;10.068;2023-12-20T01:11:56;4.95;;;3.55;;
58360;SDS011;44164;44.954;10.068;2023-12-20T01:14:22;6.18;;;3.70;;
58360;SDS011;44164;44.954;10.068;2023-12-20T01:16:48;5.53;;;3.67;;
58360;SDS011;44164;44.954;10.068;2023-12-20T01:19:14;5.43;;;4.18;;
58360;SDS011;44164;44.954;10.068;2023-12-20T01:21:40;4.95;;;3.55;;
58360;SDS011;44164;44.954;10.068;2023-12-20T01:24:06;5.18;;;3.70;;
58360;SDS011;44164;44.954;10.068;2023-12-20T01:26:33;5.55;;;3.88;;
58360;SDS011;44164;44.954;10.068;2023-12-20T01:28:59;5.50;;;3.33;;
58360;SDS011;44164;44.954;10.068;2023-12-20T01:31:26;4.63;;;3.30;;
58360;SDS011;44164;44.954;10.068;2023-12-20T01:33:53;5.78;;;3.90;;
58360;SDS011;44164;44.954;10.068;2023-12-20T01:36:19;5.15;;;3.58;;
58360;SDS011;44164;44.954;10.068;2023-12-20T01:38:45;5.78;;;3.97;;
58360;SDS011;44164;44.954;10.068;2023-12-20T01:41:11;7.30;;;4.55;;
58360;SDS011;44164;44.954;10.068;2023-12-20T01:43:38;4.60;;;3.42;;
58360;SDS011;44164;44.954;10.068;2023-12-20T01:46:04;6.40;;;4.60;;
58360;SDS011;44164;44.954;10.068;2023-12-20T01:48:30;4.43;;;3.30;;
58360;SDS011;44164;44.954;10.068;2023-12-20T01:50:58;6.28;;;3.65;;
58360;SDS011;44164;44.954;10.068;2023-12-20T01:53:25;5.47;;;3.67;;
58360;SDS011;44164;44.954;10.068;2023-12-20T01:55:52;5.15;;;3.45;;
58360;SDS011;44164;44.954;10.068;2023-12-20T02:00:46;5.47;;;4.00;;
58360;SDS011;44164;44.954;10.068;2023-12-20T02:03:13;6.70;;;3.88;;
58360;SDS011;44164;44.954;10.068;2023-12-20T02:05:39;5.55;;;3.85;;
58360;SDS011;44164;44.954;10.068;2023-12-20T02:08:06;4.93;;;3.55;;
58360;SDS011;44164;44.954;10.068;2023-12-20T02:10:32;5.32;;;3.70;;
58360;SDS011;44164;44.954;10.068;2023-12-20T02:12:58;6.03;;;3.95;;
58360;SDS011;44164;44.954;10.068;2023-12-20T02:15:24;4.75;;;3.20;;
58360;SDS011;44164;44.954;10.068;2023-12-20T02:17:51;5.20;;;3.97;;
58360;SDS011;44164;44.954;10.068;2023-12-20T02:20:17;5.07;;;3.72;;
58360;SDS011;44164;44.954;10.068;2023-12-20T02:22:43;5.78;;;3.55;;
58360;SDS011;44164;44.954;10.068;2023-12-20T02:25:10;5.72;;;3.42;;
58360;SDS011;44164;44.954;10.068;2023-12-20T02:27:36;5.80;;;3.83;;
58360;SDS011;44164;44.954;10.068;2023-12-20T02:30:03;5.47;;;3.80;;
58360;SDS011;44164;44.954;10.068;2023-12-20T02:32:29;4.65;;;3.45;;
58360;SDS011;44164;44.954;10.068;2023-12-20T02:34:56;4.30;;;3.33;;
58360;SDS011;44164;44.954;10.068;2023-12-20T02:37:22;4.63;;;3.53;;
58360;SDS011;44164;44.954;10.068;2023-12-20T02:39:48;4.05;;;3.20;;
58360;SDS011;44164;44.954;10.068;2023-12-20T02:42:14;6.38;;;3.47;;
58360;SDS011;44164;44.954;10.068;2023-12-20T02:44:40;5.55;;;3.60;;
58360;SDS011;44164;44.954;10.068;2023-12-20T02:47:06;5.50;;;3.30;;
58360;SDS011;44164;44.954;10.068;2023-12-20T02:49:33;4.68;;;3.20;;
58360;SDS011;44164;44.954;10.068;2023-12-20T02:51:59;5.47;;;3.45;;
58360;SDS011;44164;44.954;10.068;2023-12-20T02:54:25;5.70;;;3.60;;
58360;SDS011;44164;44.954;10.068;2023-12-20T02:56:51;4.07;;;3.20;;
58360;SDS011;44164;44.954;10.068;2023-12-20T02:59:17;4.43;;;3.33;;
58360;SDS011;44164;44.954;10.068;2023-12-20T03:01:44;4.57;;;3.15;;
58360;SDS011;44164;44.954;10.068;2023-12-20T03:04:11;4.63;;;3.53;;
58360;SDS011;44164;44.954;10.068;2023-12-20T03:06:38;5.50;;;3.42;;
58360;SDS011;44164;44.954;10.068;2023-12-20T03:09:04;4.35;;;2.85;;
58360;SDS011;44164;44.954;10.068;2023-12-20T03:11:30;4.40;;;3.28;;
58360;SDS011;44164;44.954;10.068;2023-12-20T03:13:57;5.43;;;3.30;;
58360;SDS011;44164;44.954;10.068;2023-12-20T03:16:23;3.97;;;2.97;;
58360;SDS011;44164;44.954;10.068;2023-12-20T03:18:49;5.03;;;3.40;;
58360;SDS011;44164;44.954;10.068;2023-12-20T03:21:15;4.82;;;3.13;;
58360;SDS011;44164;44.954;10.068;2023-12-20T03:23:42;4.13;;;3.05;;
58360;SDS011;44164;44.954;10.068;2023-12-20T03:26:09;4.72;;;3.10;;
58360;SDS011;44164;44.954;10.068;2023-12-20T03:28:35;4.60;;;2.85;;
58360;SDS011;44164;44.954;10.068;2023-12-20T03:31:02;6.13;;;3.63;;
58360;SDS011;44164;44.954;10.068;2023-12-20T03:33:29;4.05;;;2.58;;
58360;SDS011;44164;44.954;10.068;2023-12-20T03:35:55;4.28;;;3.10;;
58360;SDS011;44164;44.954;10.068;2023-12-20T03:38:22;3.70;;;2.90;;
58360;SDS011;44164;44.954;10.068;2023-12-20T03:40:50;4.72;;;3.05;;
58360;SDS011;44164;44.954;10.068;2023-12-20T03:43:16;4.40;;;3.35;;
58360;SDS011;44164;44.954;10.068;2023-12-20T03:45:42;5.07;;;3.20;;
58360;SDS011;44164;44.954;10.068;2023-12-20T03:48:08;3.92;;;2.97;;
58360;SDS011;44164;44.954;10.068;2023-12-20T03:50:35;5.03;;;3.40;;
58360;SDS011;44164;44.954;10.068;2023-12-20T03:53:01;4.20;;;2.58;;
58360;SDS011;44164;44.954;10.068;2023-12-20T03:55:27;5.22;;;2.60;;
58360;SDS011;44164;44.954;10.068;2023-12-20T03:57:54;3.90;;;2.70;;
58360;SDS011;44164;44.954;10.068;2023-12-20T04:00:20;3.97;;;2.80;;
58360;SDS011;44164;44.954;10.068;2023-12-20T04:02:46;4.13;;;2.80;;
58360;SDS011;44164;44.954;10.068;2023-12-20T04:05:12;6.00;;;3.20;;
58360;SDS011;44164;44.954;10.068;2023-12-20T04:07:38;4.18;;;2.97;;
58360;SDS011;44164;44.954;10.068;2023-12-20T04:10:05;4.00;;;2.72;;
58360;SDS011;44164;44.954;10.068;2023-12-20T04:12:32;3.95;;;2.70;;
58360;SDS011;44164;44.954;10.068;2023-12-20T04:14:58;3.38;;;2.55;;
58360;SDS011;44164;44.954;10.068;2023-12-20T04:17:24;3.75;;;2.63;;
58360;SDS011;44164;44.954;10.068;2023-12-20T04:19:50;3.83;;;2.78;;
58360;SDS011;44164;44.954;10.068;2023-12-20T04:22:17;4.15;;;2.67;;
58360;SDS011;44164;44.954;10.068;2023-12-20T04:24:44;4.03;;;2.73;;
58360;SDS011;44164;44.954;10.068;2023-12-20T04:27:11;3.50;;;2.45;;
58360;SDS011;44164;44.954;10.068;2023-12-20T04:29:37;5.18;;;2.90;;
58360;SDS011;44164;44.954;10.068;2023-12-20T04:32:04;3.47;;;2.47;;
58360;SDS011;44164;44.954;10.068;2023-12-20T04:34:30;3.92;;;2.80;;
58360;SDS011;44164;44.954;10.068;2023-12-20T04:36:57;3.75;;;2.35;;
58360;SDS011;44164;44.954;10.068;2023-12-20T04:39:23;4.97;;;2.47;;
58360;SDS011;44164;44.954;10.068;2023-12-20T04:41:49;4.07;;;2.97;;
58360;SDS011;44164;44.954;10.068;2023-12-20T04:44:15;4.15;;;3.00;;
58360;SDS011;44164;44.954;10.068;2023-12-20T04:46:42;3.50;;;2.65;;
58360;SDS011;44164;44.954;10.068;2023-12-20T04:49:08;3.03;;;2.40;;
58360;SDS011;44164;44.954;10.068;2023-12-20T04:51:34;4.25;;;2.58;;
58360;SDS011;44164;44.954;10.068;2023-12-20T04:54:01;3.10;;;2.30;;
58360;SDS011;44164;44.954;10.068;2023-12-20T04:56:27;3.75;;;2.55;;
58360;SDS011;44164;44.954;10.068;2023-12-20T04:58:54;3.55;;;2.78;;
58360;SDS011;44164;44.954;10.068;2023-12-20T05:01:20;4.65;;;2.53;;
58360;SDS011;44164;44.954;10.068;2023-12-20T05:03:47;3.58;;;2.53;;
58360;SDS011;44164;44.954;10.068;2023-12-20T05:06:13;3.40;;;2.33;;
58360;SDS011;44164;44.954;10.068;2023-12-20T05:08:40;3.80;;;2.58;;
58360;SDS011;44164;44.954;10.068;2023-12-20T05:11:06;4.03;;;2.17;;
58360;SDS011;44164;44.954;10.068;2023-12-20T05:13:33;4.20;;;2.58;;
58360;SDS011;44164;44.954;10.068;2023-12-20T05:15:59;4.13;;;2.40;;
58360;SDS011;44164;44.954;10.068;2023-12-20T05:18:25;3.83;;;2.30;;
58360;SDS011;44164;44.954;10.068;2023-12-20T05:20:51;3.50;;;2.53;;
58360;SDS011;44164;44.954;10.068;2023-12-20T05:23:17;3.28;;;2.35;;
58360;SDS011;44164;44.954;10.068;2023-12-20T05:25:43;4.68;;;2.22;;
58360;SDS011;44164;44.954;10.068;2023-12-20T05:28:10;3.90;;;2.67;;
58360;SDS011;44164;44.954;10.068;2023-12-20T05:30:36;2.92;;;1.98;;
58360;SDS011;44164;44.954;10.068;2023-12-20T05:33:02;4.88;;;2.50;;
58360;SDS011;44164;44.954;10.068;2023-12-20T05:35:28;3.67;;;2.45;;
58360;SDS011;44164;44.954;10.068;2023-12-20T05:37:54;3.97;;;2.58;;
58360;SDS011;44164;44.954;10.068;2023-12-20T05:40:21;3.60;;;2.42;;
58360;SDS011;44164;44.954;10.068;2023-12-20T05:42:47;3.75;;;2.45;;
58360;SDS011;44164;44.954;10.068;2023-12-20T05:45:14;5.82;;;2.40;;
58360;SDS011;44164;44.954;10.068;2023-12-20T05:47:40;3.05;;;2.10;;
58360;SDS011;44164;44.954;10.068;2023-12-20T05:50:06;3.83;;;2.40;;
58360;SDS011;44164;44.954;10.068;2023-12-20T05:52:33;3.92;;;2.50;;
58360;SDS011;44164;44.954;10.068;2023-12-20T05:54:59;3.60;;;2.40;;
58360;SDS011;44164;44.954;10.068;2023-12-20T05:57:27;4.17;;;2.37;;
58360;SDS011;44164;44.954;10.068;2023-12-20T05:59:53;6.40;;;2.63;;
58360;SDS011;44164;44.954;10.068;2023-12-20T06:02:19;4.30;;;2.10;;
58360;SDS011;44164;44.954;10.068;2023-12-20T06:04:45;3.22;;;2.13;;
58360;SDS011;44164;44.954;10.068;2023-12-20T06:07:12;4.15;;;2.40;;
58360;SDS011;44164;44.954;10.068;2023-12-20T06:09:38;2.97;;;2.10;;
58360;SDS011;44164;44.954;10.068;2023-12-20T06:12:05;4.18;;;2.60;;
58360;SDS011;44164;44.954;10.068;2023-12-20T06:14:31;3.10;;;2.15;;
58360;SDS011;44164;44.954;10.068;2023-12-20T06:16:57;2.85;;;1.90;;
58360;SDS011;44164;44.954;10.068;2023-12-20T06:19:24;3.75;;;2.63;;
58360;SDS011;44164;44.954;10.068;2023-12-20T06:21:50;3.88;;;2.33;;
58360;SDS011;44164;44.954;10.068;2023-12-20T06:24:16;3.85;;;2.33;;
58360;SDS011;44164;44.954;10.068;2023-12-20T06:26:42;3.58;;;2.03;;
58360;SDS011;44164;44.954;10.068;2023-12-20T06:29:08;4.05;;;2.47;;
58360;SDS011;44164;44.954;10.068;2023-12-20T06:31:35;4.50;;;2.08;;
58360;SDS011;44164;44.954;10.068;2023-12-20T06:34:01;4.25;;;2.55;;
58360;SDS011;44164;44.954;10.068;2023-12-20T06:36:27;5.53;;;2.25;;
58360;SDS011;44164;44.954;10.068;2023-12-20T06:38:53;5.03;;;3.55;;
58360;SDS011;44164;44.954;10.068;2023-12-20T06:41:19;5.63;;;3.03;;
58360;SDS011;44164;44.954;10.068;2023-12-20T06:43:45;9.18;;;3.20;;
58360;SDS011;44164;44.954;10.068;2023-12-20T06:46:12;5.22;;;3.20;;
58360;SDS011;44164;44.954;10.068;2023-12-20T06:48:39;5.95;;;3.03;;
58360;SDS011;44164;44.954;10.068;2023-12-20T06:51:06;5.80;;;2.88;;
58360;SDS011;44164;44.954;10.068;2023-12-20T06:53:32;14.27;;;7.32;;
58360;SDS011;44164;44.954;10.068;2023-12-20T06:55:58;13.88;;;5.80;;
58360;SDS011;44164;44.954;10.068;2023-12-20T06:58:25;9.25;;;4.85;;
58360;SDS011;44164;44.954;10.068;2023-12-20T07:00:51;7.05;;;4.45;;
58360;SDS011;44164;44.954;10.068;2023-12-20T07:03:17;10.77;;;5.07;;
58360;SDS011;44164;44.954;10.068;2023-12-20T07:05:43;8.65;;;4.57;;
58360;SDS011;44164;44.954;10.068;2023-12-20T07:08:10;10.48;;;5.45;;
58360;SDS011;44164;44.954;10.068;2023-12-20T07:10:36;8.68;;;4.40;;
58360;SDS011;44164;44.954;10.068;2023-12-20T07:13:03;11.05;;;5.60;;
58360;SDS011;44164;44.954;10.068;2023-12-20T07:15:29;14.65;;;4.70;;
58360;SDS011;44164;44.954;10.068;2023-12-20T07:17:55;11.13;;;4.47;;
58360;SDS011;44164;44.954;10.068;2023-12-20T07:20:21;7.60;;;4.10;;
58360;SDS011;44164;44.954;10.068;2023-12-20T07:22:47;10.98;;;4.80;;
58360;SDS011;44164;44.954;10.068;2023-12-20T07:25:14;9.48;;;4.50;;
58360;SDS011;44164;44.954;10.068;2023-12-20T07:27:40;7.43;;;4.07;;
58360;SDS011;44164;44.954;10.068;2023-12-20T07:30:06;10.35;;;4.38;;
58360;SDS011;44164;44.954;10.068;2023-12-20T07:32:33;10.15;;;4.03;;
58360;SDS011;44164;44.954;10.068;2023-12-20T07:34:59;5.30;;;3.17;;
58360;SDS011;44164;44.954;10.068;2023-12-20T07:37:25;7.43;;;4.18;;
58360;SDS011;44164;44.954;10.068;2023-12-20T07:39:51;9.07;;;4.70;;
58360;SDS011;44164;44.954;10.068;2023-12-20T07:42:17;7.43;;;4.68;;
58360;SDS011;44164;44.954;10.068;2023-12-20T07:44:45;7.18;;;3.53;;
58360;SDS011;44164;44.954;10.068;2023-12-20T07:47:11;8.65;;;3.85;;
58360;SDS011;44164;44.954;10.068;2023-12-20T07:49:41;7.82;;;3.88;;
58360;SDS011;44164;44.954;10.068;2023-12-20T07:52:07;5.82;;;3.50;;
58360;SDS011;44164;44.954;10.068;2023-12-20T07:54:33;6.75;;;3.90;;
58360;SDS011;44164;44.954;10.068;2023-12-20T07:57:00;9.23;;;3.45;;
58360;SDS011;44164;44.954;10.068;2023-12-20T07:59:26;7.53;;;3.85;;
58360;SDS011;44164;44.954;10.068;2023-12-20T08:01:52;4.78;;;3.10;;
58360;SDS011;44164;44.954;10.068;2023-12-20T08:04:18;5.78;;;3.53;;
58360;SDS011;44164;44.954;10.068;2023-12-20T08:06:44;4.75;;;3.00;;
58360;SDS011;44164;44.954;10.068;2023-12-20T08:09:10;8.43;;;3.75;;
58360;SDS011;44164;44.954;10.068;2023-12-20T08:11:36;8.43;;;3.90;;
58360;SDS011;44164;44.954;10.068;2023-12-20T08:14:03;5.70;;;3.63;;
58360;SDS011;44164;44.954;10.068;2023-12-20T08:16:29;5.85;;;3.40;;
58360;SDS011;44164;44.954;10.068;2023-12-20T08:18:55;6.07;;;3.45;;
58360;SDS011;44164;44.954;10.068;2023-12-20T08:21:21;4.88;;;3.17;;
58360;SDS011;44164;44.954;10.068;2023-12-20T08:23:48;5.90;;;3.67;;
58360;SDS011;44164;44.954;10.068;2023-12-20T08:26:18;5.10;;;3.30;;
58360;SDS011;44164;44.954;10.068;2023-12-20T08:28:46;7.55;;;3.55;;
58360;SDS011;44164;44.954;10.068;2023-12-20T08:31:15;6.70;;;3.40;;
58360;SDS011;44164;44.954;10.068;2023-12-20T08:33:46;6.43;;;3.85;;
58360;SDS011;44164;44.954;10.068;2023-12-20T08:36:13;5.68;;;3.15;;
58360;SDS011;44164;44.954;10.068;2023-12-20T08:38:39;8.80;;;3.42;;
58360;SDS011;44164;44.954;10.068;2023-12-20T08:41:06;5.95;;;3.25;;
58360;SDS011;44164;44.954;10.068;2023-12-20T08:43:33;6.43;;;3.47;;
58360;SDS011;44164;44.954;10.068;2023-12-20T08:46:01;5.20;;;3.25;;
58360;SDS011;44164;44.954;10.068;2023-12-20T08:48:28;7.93;;;3.80;;
58360;SDS011;44164;44.954;10.068;2023-12-20T08:50:54;4.13;;;2.88;;
58360;SDS011;44164;44.954;10.068;2023-12-20T08:53:20;4.70;;;3.50;;
58360;SDS011;44164;44.954;10.068;2023-12-20T08:55:47;6.63;;;3.63;;
58360;SDS011;44164;44.954;10.068;2023-12-20T08:58:13;3.85;;;2.50;;
58360;SDS011;44164;44.954;10.068;2023-12-20T09:00:40;5.72;;;2.95;;
58360;SDS011;44164;44.954;10.068;2023-12-20T09:03:06;4.32;;;2.97;;
58360;SDS011;44164;44.954;10.068;2023-12-20T09:05:32;4.18;;;2.97;;
58360;SDS011;44164;44.954;10.068;2023-12-20T09:07:58;4.88;;;2.95;;
58360;SDS011;44164;44.954;10.068;2023-12-20T09:10:24;4.78;;;2.92;;
58360;SDS011;44164;44.954;10.068;2023-12-20T09:12:51;7.93;;;3.45;;
58360;SDS011;44164;44.954;10.068;2023-12-20T09:15:23;8.73;;;3.25;;
58360;SDS011;44164;44.954;10.068;2023-12-20T09:17:49;6.50;;;3.67;;
58360;SDS011;44164;44.954;10.068;2023-12-20T09:20:15;5.40;;;3.15;;
58360;SDS011;44164;44.954;10.068;2023-12-20T09:22:42;4.60;;;3.30;;
58360;SDS011;44164;44.954;10.068;2023-12-20T09:25:08;4.38;;;3.08;;
58360;SDS011;44164;44.954;10.068;2023-12-20T09:27:38;4.63;;;3.55;;
58360;SDS011;44164;44.954;10.068;2023-12-20T09:30:04;5.22;;;3.05;;
58360;SDS011;44164;44.954;10.068;2023-12-20T09:32:31;5.05;;;3.22;;
58360;SDS011;44164;44.954;10.068;2023-12-20T09:34:58;4.03;;;2.63;;
58360;SDS011;44164;44.954;10.068;2023-12-20T09:37:27;4.90;;;2.92;;
58360;SDS011;44164;44.954;10.068;2023-12-20T09:39:54;4.65;;;3.22;;
58360;SDS011;44164;44.954;10.068;2023-12-20T09:42:22;3.88;;;2.70;;
58360;SDS011;44164;44.954;10.068;2023-12-20T09:44:52;4.57;;;2.97;;
58360;SDS011;44164;44.954;10.068;2023-12-20T09:47:19;4.97;;;3.17;;
58360;SDS011;44164;44.954;10.068;2023-12-20T09:49:46;3.40;;;2.50;;
58360;SDS011;44164;44.954;10.068;2023-12-20T09:52:13;7.15;;;3.08;;
58360;SDS011;44164;44.954;10.068;2023-12-20T09:54:40;4.13;;;2.90;;
58360;SDS011;44164;44.954;10.068;2023-12-20T09:57:06;6.72;;;3.30;;
58360;SDS011;44164;44.954;10.068;2023-12-20T09:59:32;4.45;;;3.13;;
58360;SDS011;44164;44.954;10.068;2023-12-20T10:01:59;4.65;;;2.72;;
58360;SDS011;44164;44.954;10.068;2023-12-20T10:04:29;5.90;;;3.20;;
58360;SDS011;44164;44.954;10.068;2023-12-20T10:07:01;6.05;;;3.08;;
58360;SDS011;44164;44.954;10.068;2023-12-20T10:09:30;4.07;;;2.53;;
58360;SDS011;44164;44.954;10.068;2023-12-20T10:11:57;4.07;;;2.53;;
58360;SDS011;44164;44.954;10.068;2023-12-20T10:14:23;4.25;;;2.95;;
58360;SDS011;44164;44.954;10.068;2023-12-20T10:16:50;4.47;;;3.15;;
58360;SDS011;44164;44.954;10.068;2023-12-20T10:19:16;6.38;;;3.45;;
58360;SDS011;44164;44.954;10.068;2023-12-20T10:21:43;6.03;;;3.13;;
58360;SDS011;44164;44.954;10.068;2023-12-20T10:24:10;5.40;;;3.55;;
58360;SDS011;44164;44.954;10.068;2023-12-20T10:26:42;6.53;;;3.08;;
58360;SDS011;44164;44.954;10.068;2023-12-20T10:29:08;5.47;;;2.92;;
58360;SDS011;44164;44.954;10.068;2023-12-20T10:31:36;6.57;;;3.22;;
58360;SDS011;44164;44.954;10.068;2023-12-20T10:34:04;5.25;;;3.47;;
58360;SDS011;44164;44.954;10.068;2023-12-20T10:36:33;5.18;;;3.45;;
58360;SDS011;44164;44.954;10.068;2023-12-20T10:39:00;6.70;;;3.38;;
58360;SDS011;44164;44.954;10.068;2023-12-20T10:41:28;7.82;;;3.55;;
58360;SDS011;44164;44.954;10.068;2023-12-20T10:44:00;9.57;;;3.53;;
58360;SDS011;44164;44.954;10.068;2023-12-20T10:46:29;6.55;;;3.53;;
58360;SDS011;44164;44.954;10.068;2023-12-20T10:48:56;5.60;;;2.78;;
58360;SDS011;44164;44.954;10.068;2023-12-20T10:51:23;5.35;;;3.17;;
58360;SDS011;44164;44.954;10.068;2023-12-20T10:53:52;6.13;;;3.40;;
58360;SDS011;44164;44.954;10.068;2023-12-20T10:56:19;6.20;;;3.15;;
58360;SDS011;44164;44.954;10.068;2023-12-20T10:58:48;5.20;;;3.50;;
58360;SDS011;44164;44.954;10.068;2023-12-20T11:03:47;5.20;;;3.35;;
58360;SDS011;44164;44.954;10.068;2023-12-20T11:06:20;5.90;;;3.58;;
58360;SDS011;44164;44.954;10.068;2023-12-20T11:09:28;8.20;;;3.30;;
58360;SDS011;44164;44.954;10.068;2023-12-20T11:12:12;5.80;;;3.08;;
58360;SDS011;44164;44.954;10.068;2023-12-20T11:17:12;4.32;;;3.00;;
58360;SDS011;44164;44.954;10.068;2023-12-20T11:22:29;5.00;;;3.10;;
58360;SDS011;44164;44.954;10.068;2023-12-20T11:25:06;4.72;;;2.95;;
58360;SDS011;44164;44.954;10.068;2023-12-20T11:27:37;6.43;;;2.97;;
58360;SDS011;44164;44.954;10.068;2023-12-20T11:30:07;4.28;;;2.80;;
58360;SDS011;44164;44.954;10.068;2023-12-20T11:32:35;4.18;;;2.50;;
58360;SDS011;44164;44.954;10.068;2023-12-20T11:37:32;4.45;;;2.83;;
58360;SDS011;44164;44.954;10.068;2023-12-20T11:40:02;4.72;;;3.22;;
58360;SDS011;44164;44.954;10.068;2023-12-20T11:43:12;3.35;;;2.70;;
58360;SDS011;44164;44.954;10.068;2023-12-20T11:45:23;3.92;;;2.75;;
58360;SDS011;44164;44.954;10.068;2023-12-20T11:47:50;4.13;;;2.58;;
58360;SDS011;44164;44.954;10.068;2023-12-20T11:50:17;4.50;;;2.53;;
58360;SDS011;44164;44.954;10.068;2023-12-20T11:52:44;4.03;;;2.58;;
58360;SDS011;44164;44.954;10.068;2023-12-20T11:55:10;4.25;;;2.58;;
58360;SDS011;44164;44.954;10.068;2023-12-20T11:57:37;5.97;;;2.80;;
58360;SDS011;44164;44.954;10.068;2023-12-20T12:00:03;4.25;;;2.47;;
58360;SDS011;44164;44.954;10.068;2023-12-20T12:02:38;5.10;;;2.78;;
58360;SDS011;44164;44.954;10.068;2023-12-20T12:05:05;3.58;;;2.42;;
58360;SDS011;44164;44.954;10.068;2023-12-20T12:07:32;6.65;;;2.90;;
58360;SDS011;44164;44.954;10.068;2023-12-20T12:09:58;5.88;;;3.00;;
58360;SDS011;44164;44.954;10.068;2023-12-20T12:12:24;4.97;;;3.05;;
58360;SDS011;44164;44.954;10.068;2023-12-20T12:17:18;4.57;;;2.70;;
58360;SDS011;44164;44.954;10.068;2023-12-20T12:19:45;4.57;;;3.10;;
58360;SDS011;44164;44.954;10.068;2023-12-20T12:22:12;4.88;;;2.95;;
58360;SDS011;44164;44.954;10.068;2023-12-20T12:24:43;4.65;;;2.90;;
58360;SDS011;44164;44.954;10.068;2023-12-20T12:27:11;4.47;;;3.05;;
58360;SDS011;44164;44.954;10.068;2023-12-20T12:29:37;4.93;;;3.08;;
58360;SDS011;44164;44.954;10.068;2023-12-20T12:32:06;3.90;;;2.53;;
58360;SDS011;44164;44.954;10.068;2023-12-20T12:37:00;4.47;;;2.67;;
58360;SDS011;44164;44.954;10.068;2023-12-20T12:39:26;6.82;;;2.97;;
58360;SDS011;44164;44.954;10.068;2023-12-20T12:41:53;3.97;;;2.67;;
58360;SDS011;44164;44.954;10.068;2023-12-20T12:44:19;4.63;;;3.10;;
58360;SDS011;44164;44.954;10.068;2023-12-20T12:46:46;5.75;;;2.20;;
58360;SDS011;44164;44.954;10.068;2023-12-20T12:49:12;7.32;;;2.92;;
58360;SDS011;44164;44.954;10.068;2023-12-20T12:51:39;4.20;;;3.00;;
58360;SDS011;44164;44.954;10.068;2023-12-20T12:54:05;4.53;;;2.80;;
58360;SDS011;44164;44.954;10.068;2023-12-20T12:56:31;3.40;;;2.30;;
58360;SDS011;44164;44.954;10.068;2023-12-20T12:58:57;4.80;;;2.50;;
58360;SDS011;44164;44.954;10.068;2023-12-20T13:01:24;4.82;;;2.60;;
58360;SDS011;44164;44.954;10.068;2023-12-20T13:03:50;5.53;;;3.03;;
58360;SDS011;44164;44.954;10.068;2023-12-20T13:06:16;6.88;;;2.90;;
58360;SDS011;44164;44.954;10.068;2023-12-20T13:08:43;6.07;;;3.00;;
58360;SDS011;44164;44.954;10.068;2023-12-20T13:11:10;5.72;;;3.20;;
58360;SDS011;44164;44.954;10.068;2023-12-20T13:13:36;5.00;;;3.08;;
58360;SDS011;44164;44.954;10.068;2023-12-20T13:16:02;4.72;;;2.55;;
58360;SDS011;44164;44.954;10.068;2023-12-20T13:18:29;5.30;;;2.75;;
58360;SDS011;44164;44.954;10.068;2023-12-20T13:20:55;5.22;;;3.63;;
58360;SDS011;44164;44.954;10.068;2023-12-20T13:23:21;8.43;;;3.28;;
58360;SDS011;44164;44.954;10.068;2023-12-20T13:25:47;6.78;;;3.17;;
58360;SDS011;44164;44.954;10.068;2023-12-20T13:28:13;7.50;;;3.72;;
58360;SDS011;44164;44.954;10.068;2023-12-20T13:30:40;5.13;;;3.08;;
58360;SDS011;44164;44.954;10.068;2023-12-20T13:33:06;10.88;;;3.85;;
58360;SDS011;44164;44.954;10.068;2023-12-20T13:35:32;5.78;;;3.50;;
58360;SDS011;44164;44.954;10.068;2023-12-20T13:37:59;6.80;;;3.50;;
58360;SDS011;44164;44.954;10.068;2023-12-20T13:40:26;6.97;;;3.90;;
58360;SDS011;44164;44.954;10.068;2023-12-20T13:42:52;6.80;;;4.30;;
58360;SDS011;44164;44.954;10.068;2023-12-20T13:45:20;10.00;;;4.82;;
58360;SDS011;44164;44.954;10.068;2023-12-20T13:47:46;7.05;;;4.40;;
58360;SDS011;44164;44.954;10.068;2023-12-20T13:50:12;5.85;;;4.32;;
58360;SDS011;44164;44.954;10.068;2023-12-20T13:52:39;6.07;;;4.05;;
58360;SDS011;44164;44.954;10.068;2023-12-20T13:55:05;7.25;;;4.45;;
58360;SDS011;44164;44.954;10.068;2023-12-20T13:57:33;6.57;;;4.05;;
58360;SDS011;44164;44.954;10.068;2023-12-20T13:59:59;9.15;;;4.50;;
58360;SDS011;44164;44.954;10.068;2023-12-20T14:02:25;6.43;;;3.88;;
58360;SDS011;44164;44.954;10.068;2023-12-20T14:04:52;7.57;;;4.40;;
58360;SDS011;44164;44.954;10.068;2023-12-20T14:07:18;18.23;;;8.88;;
58360;SDS011;44164;44.954;10.068;2023-12-20T14:09:45;24.55;;;11.80;;
58360;SDS011;44164;44.954;10.068;2023-12-20T14:12:11;8.93;;;7.65;;
58360;SDS011;44164;44.954;10.068;2023-12-20T14:14:38;9.07;;;6.15;;
58360;SDS011;44164;44.954;10.068;2023-12-20T14:17:04;10.00;;;6.68;;
58360;SDS011;44164;44.954;10.068;2023-12-20T14:19:32;9.90;;;6.85;;
58360;SDS011;44164;44.954;10.068;2023-12-20T14:21:59;11.88;;;7.10;;
58360;SDS011;44164;44.954;10.068;2023-12-20T14:24:29;10.50;;;7.40;;
58360;SDS011;44164;44.954;10.068;2023-12-20T14:26:55;11.63;;;6.63;;
58360;SDS011;44164;44.954;10.068;2023-12-20T14:29:21;8.15;;;6.40;;
58360;SDS011;44164;44.954;10.068;2023-12-20T14:31:47;10.70;;;6.22;;
58360;SDS011;44164;44.954;10.068;2023-12-20T14:34:15;9.85;;;5.97;;
58360;SDS011;44164;44.954;10.068;2023-12-20T14:36:41;11.27;;;6.65;;
58360;SDS011;44164;44.954;10.068;2023-12-20T14:39:08;8.98;;;6.00;;
58360;SDS011;44164;44.954;10.068;2023-12-20T14:41:34;11.23;;;6.82;;
58360;SDS011;44164;44.954;10.068;2023-12-20T14:44:00;10.27;;;6.30;;
58360;SDS011;44164;44.954;10.068;2023-12-20T14:46:26;8.82;;;5.95;;
58360;SDS011;44164;44.954;10.068;2023-12-20T14:48:54;13.10;;;6.25;;